Time;durP1;ratioP1;P1;durP2;ratioP2;P2;SDS_P1;SDS_P2;PMS_P1;PMS_P2;Temp;Humidity;BMP_temperature;BMP_pressure;BME280_temperature;BME280_humidity;BME280_pressure;Samples;Min_cycle;Max_cycle;Signal;HPM_P1;HPM_P2
2021/11/25 00:02:34;;;;;;;15.90;9.68;;;;;;;6.28;100.00;102033.81;5100032;28;20031;-69
2021/11/25 00:05:20;;;;;;;13.15;9.25;;;;;;;6.60;100.00;102035.34;5101444;27;20030;-69
2021/11/25 00:08:06;;;;;;;14.48;9.25;;;;;;;6.54;100.00;102032.59;5113144;28;20019;-68
2021/11/25 00:10:52;;;;;;;12.13;8.52;;;;;;;6.82;100.00;102037.47;5115875;28;20031;-68
2021/11/25 00:13:38;;;;;;;12.70;8.57;;;;;;;6.72;100.00;102040.78;5114810;28;20027;-68
2021/11/25 00:16:24;;;;;;;13.05;8.90;;;;;;;6.66;100.00;102042.34;5100778;28;20015;-69
2021/11/25 00:19:09;;;;;;;14.77;8.43;;;;;;;6.85;100.00;102040.16;5099437;28;20019;-68
2021/11/25 00:21:55;;;;;;;13.68;9.38;;;;;;;6.99;100.00;102038.66;5099778;28;20329;-68
2021/11/25 00:24:41;;;;;;;13.90;9.15;;;;;;;6.87;100.00;102045.41;5100670;28;20081;-69
2021/11/25 00:27:27;;;;;;;16.45;10.55;;;;;;;7.03;100.00;102042.22;5114790;28;20116;-68
2021/11/25 00:30:13;;;;;;;19.73;13.00;;;;;;;6.70;100.00;102042.47;5114875;28;20023;-69
2021/11/25 00:32:59;;;;;;;20.60;13.63;;;;;;;6.69;100.00;102048.53;5099118;28;20034;-68
2021/11/25 00:35:45;;;;;;;23.05;14.52;;;;;;;6.06;100.00;102047.19;5099539;28;20107;-69
2021/11/25 00:38:31;;;;;;;25.15;14.80;;;;;;;6.08;100.00;102045.50;5113328;28;20055;-71
2021/11/25 00:41:18;;;;;;;23.52;14.65;;;;;;;5.98;100.00;102038.34;5100655;28;20043;-70
2021/11/25 00:44:04;;;;;;;21.10;13.70;;;;;;;6.05;100.00;102023.75;5099796;28;20024;-70
2021/11/25 00:46:50;;;;;;;22.20;13.68;;;;;;;5.79;100.00;102024.88;5114527;28;20065;-69
2021/11/25 00:49:36;;;;;;;20.55;13.75;;;;;;;6.01;100.00;102021.91;5113529;28;20097;-71
2021/11/25 00:52:22;;;;;;;22.23;13.77;;;;;;;6.20;100.00;102022.34;5114122;28;20074;-69
2021/11/25 00:55:08;;;;;;;20.65;13.23;;;;;;;6.08;100.00;102022.09;5099921;28;20027;-71
2021/11/25 00:57:54;;;;;;;21.55;14.50;;;;;;;6.07;100.00;102019.47;5100158;28;20110;-69
2021/11/25 01:00:39;;;;;;;25.77;15.65;;;;;;;6.00;100.00;102017.56;5113687;28;20444;-69
2021/11/25 01:03:25;;;;;;;25.85;16.45;;;;;;;5.91;100.00;102015.63;5100162;28;20031;-69
2021/11/25 01:06:11;;;;;;;22.83;13.90;;;;;;;5.70;100.00;102009.06;5113837;28;20363;-69
2021/11/25 01:08:57;;;;;;;23.33;14.38;;;;;;;5.84;100.00;102018.97;5099038;28;20110;-69
2021/11/25 01:11:44;;;;;;;21.95;14.52;;;;;;;5.75;100.00;102012.63;5113898;28;20092;-69
2021/11/25 01:14:33;;;;;;;25.73;16.00;;;;;;;5.63;100.00;102017.56;5113847;28;20023;-68
2021/11/25 01:17:18;;;;;;;25.63;15.20;;;;;;;5.77;100.00;102011.84;5113545;28;20122;-69
2021/11/25 01:20:06;;;;;;;29.30;17.95;;;;;;;5.83;100.00;102016.31;5099465;28;20031;-69
2021/11/25 01:22:52;;;;;;;30.35;18.08;;;;;;;5.62;100.00;102016.66;5099929;28;20023;-69
2021/11/25 01:25:39;;;;;;;30.38;17.33;;;;;;;5.76;100.00;102024.78;5098941;28;20126;-68
2021/11/25 01:28:26;;;;;;;28.10;17.33;;;;;;;5.38;100.00;102015.25;5113717;28;20035;-69
2021/11/25 01:31:12;;;;;;;29.15;17.67;;;;;;;5.13;100.00;102024.13;5114485;28;20106;-68
2021/11/25 01:33:58;;;;;;;26.98;17.75;;;;;;;4.89;100.00;102024.41;5115414;28;20054;-69
2021/11/25 01:36:44;;;;;;;32.85;19.35;;;;;;;5.06;100.00;102022.22;5117376;28;20015;-68
2021/11/25 01:39:30;;;;;;;25.77;16.55;;;;;;;4.53;100.00;102028.59;5117774;28;20040;-69
2021/11/25 01:42:16;;;;;;;24.92;16.08;;;;;;;5.14;100.00;102021.56;5103053;28;20016;-69
2021/11/25 01:45:03;;;;;;;25.95;15.30;;;;;;;5.00;100.00;102015.16;5102072;28;20133;-69
2021/11/25 01:47:50;;;;;;;23.67;14.95;;;;;;;5.09;100.00;102023.19;5117109;28;20443;-69
2021/11/25 01:50:36;;;;;;;26.35;15.60;;;;;;;5.40;100.00;102025.69;5102796;28;20379;-69
2021/11/25 01:53:22;;;;;;;23.60;14.50;;;;;;;5.54;100.00;102015.63;5103009;28;20020;-69
2021/11/25 01:56:08;;;;;;;29.20;15.88;;;;;;;5.37;100.00;102016.94;5102071;28;20050;-67
2021/11/25 01:58:55;;;;;;;24.73;15.88;;;;;;;5.01;100.00;102021.22;5117461;28;20403;-69
2021/11/25 02:01:41;;;;;;;25.15;15.57;;;;;;;5.32;100.00;102010.75;5102137;28;20098;-69
2021/11/25 02:04:27;;;;;;;24.45;14.55;;;;;;;5.25;100.00;102012.34;5103519;28;20107;-68
2021/11/25 02:07:13;;;;;;;25.58;15.65;;;;;;;5.50;100.00;102016.38;5116628;28;20078;-68
2021/11/25 02:09:58;;;;;;;21.80;14.88;;;;;;;5.24;100.00;102009.69;5116029;28;20031;-69
2021/11/25 02:12:45;;;;;;;23.42;14.98;;;;;;;5.06;100.00;102014.41;5117680;28;20372;-68
2021/11/25 02:15:35;;;;;;;24.33;14.40;;;;;;;5.05;100.00;102010.97;5102567;28;20019;-69
2021/11/25 02:18:23;;;;;;;25.05;15.50;;;;;;;5.20;100.00;102011.31;5116825;28;20015;-69
2021/11/25 02:21:09;;;;;;;23.83;15.25;;;;;;;5.26;100.00;102010.59;5101481;28;20389;-68
2021/11/25 02:23:56;;;;;;;25.25;15.55;;;;;;;5.05;100.00;102010.97;5117022;28;20494;-69
2021/11/25 02:26:42;;;;;;;24.67;15.15;;;;;;;5.31;100.00;102019.41;5101485;28;20052;-68
2021/11/25 02:29:28;;;;;;;25.52;16.00;;;;;;;5.51;100.00;102009.47;5116947;28;20031;-68
2021/11/25 02:32:31;;;;;;;27.42;16.40;;;;;;;5.13;100.00;102003.34;5101725;28;20027;-69
2021/11/25 02:35:23;;;;;;;24.90;15.98;;;;;;;5.30;100.00;102002.03;5116440;28;20035;-68
2021/11/25 02:38:10;;;;;;;25.63;15.75;;;;;;;5.13;100.00;102005.94;5103083;27;20034;-69
2021/11/25 02:40:57;;;;;;;23.98;14.85;;;;;;;5.36;100.00;101999.59;5116087;28;20019;-70
2021/11/25 02:43:43;;;;;;;24.05;15.25;;;;;;;5.51;100.00;102001.69;5102015;28;20053;-69
2021/11/25 02:46:28;;;;;;;26.30;15.77;;;;;;;5.44;100.00;101993.72;5116088;28;20119;-68
2021/11/25 02:49:14;;;;;;;26.15;16.23;;;;;;;5.19;100.00;101995.72;5116290;28;20036;-69
2021/11/25 02:52:00;;;;;;;21.05;14.05;;;;;;;5.33;100.00;101996.91;5101452;28;20024;-69
2021/11/25 02:54:46;;;;;;;28.13;15.85;;;;;;;5.30;100.00;101991.66;5102264;28;20035;-69
2021/11/25 02:57:36;;;;;;;23.77;14.20;;;;;;;5.17;100.00;101980.09;5115721;28;20028;-69
2021/11/25 03:00:22;;;;;;;23.67;14.02;;;;;;;5.26;100.00;101985.50;5101695;28;20028;-68
2021/11/25 03:03:11;;;;;;;21.48;14.05;;;;;;;5.28;100.00;101990.75;5115642;28;20364;-69
2021/11/25 03:05:57;;;;;;;20.40;13.52;;;;;;;5.38;100.00;101991.00;5102338;28;20351;-69
2021/11/25 03:08:43;;;;;;;19.98;12.70;;;;;;;5.25;100.00;101991.56;5115532;28;20111;-68
2021/11/25 03:11:30;;;;;;;20.88;13.45;;;;;;;5.66;100.00;101986.44;5115706;28;20055;-68
2021/11/25 03:14:16;;;;;;;21.50;13.82;;;;;;;5.26;100.00;101990.72;5115520;28;20480;-68
2021/11/25 03:17:01;;;;;;;22.95;14.15;;;;;;;5.36;100.00;101986.59;5115419;28;20027;-69
2021/11/25 03:19:47;;;;;;;21.42;14.00;;;;;;;4.89;100.00;101988.03;5115612;28;20169;-69
2021/11/25 03:22:33;;;;;;;20.58;13.40;;;;;;;5.17;100.00;101987.00;5100690;28;20040;-68
2021/11/25 03:25:19;;;;;;;24.50;14.70;;;;;;;5.14;100.00;101987.81;5115873;28;20135;-69
2021/11/25 03:28:05;;;;;;;25.92;16.13;;;;;;;5.45;100.00;101986.81;5115240;28;20416;-69
2021/11/25 03:30:55;;;;;;;27.55;16.20;;;;;;;5.41;100.00;101979.78;5115713;28;20355;-67
2021/11/25 03:33:41;;;;;;;32.05;17.90;;;;;;;5.17;100.00;101968.81;5100648;28;20416;-69
2021/11/25 03:36:28;;;;;;;30.17;18.05;;;;;;;5.48;100.00;101973.91;5101206;28;20419;-69
2021/11/25 03:39:14;;;;;;;33.42;17.73;;;;;;;5.45;100.00;101966.03;5114857;28;20027;-68
2021/11/25 03:41:59;;;;;;;31.60;17.63;;;;;;;5.64;100.00;101970.81;5100648;28;20028;-69
2021/11/25 03:44:46;;;;;;;31.63;16.27;;;;;;;5.52;100.00;101964.44;5114962;28;20027;-69
2021/11/25 03:47:32;;;;;;;30.25;15.88;;;;;;;5.47;100.00;101965.22;5115673;28;20084;-69
2021/11/25 03:50:17;;;;;;;25.35;15.43;;;;;;;5.44;100.00;101961.69;5115529;28;20380;-69
2021/11/25 03:53:04;;;;;;;31.05;16.67;;;;;;;5.54;100.00;101957.56;5100103;28;20345;-68
2021/11/25 03:55:51;;;;;;;28.00;15.73;;;;;;;5.51;100.00;101954.91;5114394;28;20106;-68
2021/11/25 03:58:37;;;;;;;27.00;15.15;;;;;;;5.10;100.00;101960.00;5115369;28;20038;-69
2021/11/25 04:01:24;;;;;;;25.77;15.25;;;;;;;5.43;100.00;101954.72;5099974;28;20024;-69
2021/11/25 04:04:10;;;;;;;26.60;15.30;;;;;;;5.25;100.00;101956.88;5100275;28;20027;-69
2021/11/25 04:06:56;;;;;;;25.73;15.52;;;;;;;5.35;100.00;101953.69;5100164;28;20081;-69
2021/11/25 04:09:42;;;;;;;24.98;14.38;;;;;;;5.43;100.00;101952.13;5100725;28;20055;-68
2021/11/25 04:12:28;;;;;;;22.65;14.23;;;;;;;5.50;100.00;101955.75;5100274;28;20034;-68
2021/11/25 04:15:15;;;;;;;22.85;14.40;;;;;;;5.39;100.00;101947.72;5114276;28;20115;-68
2021/11/25 04:18:01;;;;;;;24.92;14.55;;;;;;;5.75;100.00;101948.53;5100627;28;20459;-68
2021/11/25 04:20:47;;;;;;;23.02;14.38;;;;;;;5.16;100.00;101947.16;5114370;28;20078;-69
2021/11/25 04:23:33;;;;;;;19.42;12.57;;;;;;;4.92;100.00;101946.59;5114553;28;20035;-69
2021/11/25 04:26:19;;;;;;;21.33;13.05;;;;;;;5.27;100.00;101956.06;5114376;28;20044;-69
2021/11/25 04:29:06;;;;;;;25.02;15.32;;;;;;;5.22;100.00;101942.13;5114182;28;20031;-68
2021/11/25 04:38:16;;;;;;;42.42;26.30;;;;;;;5.50;100.00;101943.59;5114976;28;20043;-68
2021/11/25 04:41:02;;;;;;;47.25;30.77;;;;;;;5.30;100.00;101952.66;5099796;28;20039;-68
2021/11/25 04:43:48;;;;;;;39.58;24.40;;;;;;;5.41;100.00;101943.41;5100129;28;20035;-69
2021/11/25 04:46:35;;;;;;;50.63;30.25;;;;;;;5.44;100.00;101936.56;5099067;28;20161;-69
2021/11/25 04:49:23;;;;;;;54.80;29.40;;;;;;;5.33;100.00;101938.03;5115177;28;20436;-69
2021/11/25 04:52:09;;;;;;;50.65;29.48;;;;;;;5.38;100.00;101939.03;5113983;28;20501;-69
2021/11/25 04:54:55;;;;;;;46.13;25.08;;;;;;;5.21;100.00;101927.38;5100053;28;20114;-68
2021/11/25 04:57:40;;;;;;;33.58;20.33;;;;;;;5.16;100.00;101928.97;5112483;28;20030;-69
2021/11/25 05:00:26;;;;;;;28.70;17.38;;;;;;;5.29;100.00;101930.13;5100409;28;20398;-70
2021/11/25 05:03:12;;;;;;;27.10;14.70;;;;;;;5.24;100.00;101926.56;5099076;28;20132;-68
2021/11/25 05:05:58;;;;;;;25.65;14.07;;;;;;;5.35;100.00;101927.69;5113298;28;20402;-69
2021/11/25 05:08:44;;;;;;;21.05;13.02;;;;;;;5.29;100.00;101928.44;5102010;28;20100;-69
2021/11/25 05:11:30;;;;;;;19.85;12.02;;;;;;;4.99;100.00;101934.63;5103587;28;20085;-69
2021/11/25 05:14:16;;;;;;;26.33;15.30;;;;;;;4.76;100.00;101939.25;5117722;28;20024;-68
2021/11/25 05:17:02;;;;;;;27.45;15.25;;;;;;;4.57;100.00;101937.00;5118300;28;20355;-68
2021/11/25 05:19:47;;;;;;;27.92;16.38;;;;;;;4.74;100.00;101927.94;5117501;28;20031;-68
2021/11/25 05:22:33;;;;;;;43.58;18.48;;;;;;;5.19;100.00;101929.03;5103363;28;20054;-69
2021/11/25 05:25:19;;;;;;;24.35;14.60;;;;;;;5.24;100.00;101935.22;5103276;28;20357;-69
2021/11/25 05:28:05;;;;;;;26.05;13.63;;;;;;;5.45;100.00;101932.25;5117066;28;20042;-68
2021/11/25 05:30:51;;;;;;;31.27;15.32;;;;;;;5.19;100.00;101941.16;5117490;28;20123;-68
2021/11/25 05:33:37;;;;;;;28.70;14.98;;;;;;;5.13;100.00;101939.31;5102348;28;20463;-68
2021/11/25 05:36:23;;;;;;;25.80;13.85;;;;;;;5.20;100.00;101940.31;5117127;28;20015;-69
2021/11/25 05:39:09;;;;;;;25.30;13.63;;;;;;;5.43;100.00;101941.75;5103526;28;20096;-69
2021/11/25 05:41:55;;;;;;;44.15;18.30;;;;;;;5.23;100.00;101938.66;5117239;28;20035;-69
2021/11/25 05:44:43;;;;;;;38.05;16.73;;;;;;;5.36;100.00;101927.69;5116902;28;20028;-68
2021/11/25 05:47:31;;;;;;;47.28;21.35;;;;;;;5.40;100.00;101937.31;5117329;28;20028;-69
2021/11/25 05:50:23;;;;;;;32.80;16.58;;;;;;;5.32;100.00;101938.88;5117418;28;20032;-69
2021/11/25 05:53:09;;;;;;;23.75;14.07;;;;;;;5.44;100.00;101931.34;5117544;28;20024;-69
2021/11/25 05:55:55;;;;;;;27.23;14.30;;;;;;;5.61;100.00;101933.44;5116939;28;20439;-68
2021/11/25 05:58:41;;;;;;;27.65;15.45;;;;;;;5.48;100.00;101933.19;5116685;28;20058;-69
2021/11/25 06:01:27;;;;;;;26.83;15.40;;;;;;;5.19;100.00;101926.44;5116913;28;20024;-69
2021/11/25 06:04:13;;;;;;;29.05;15.52;;;;;;;5.23;100.00;101927.41;5115767;28;20404;-68
2021/11/25 06:06:58;;;;;;;37.25;18.05;;;;;;;5.21;100.00;101923.88;5115928;28;20024;-68
2021/11/25 06:09:44;;;;;;;32.30;17.90;;;;;;;5.42;100.00;101926.97;5102770;28;20028;-69
2021/11/25 06:12:30;;;;;;;29.13;16.48;;;;;;;5.48;100.00;101919.31;5116737;28;20062;-69
2021/11/25 06:15:16;;;;;;;31.58;17.35;;;;;;;5.73;100.00;101931.09;5116476;28;20383;-68
2021/11/25 06:18:02;;;;;;;27.50;16.05;;;;;;;5.56;100.00;101927.28;5116252;28;20063;-68
2021/11/25 06:20:48;;;;;;;27.55;16.27;;;;;;;5.74;100.00;101919.88;5116237;28;20024;-69
2021/11/25 06:23:34;;;;;;;30.27;17.50;;;;;;;5.90;100.00;101922.84;5117537;28;20035;-70
2021/11/25 06:26:19;;;;;;;27.75;16.13;;;;;;;5.71;100.00;101927.63;5115947;28;20419;-69
2021/11/25 06:29:06;;;;;;;28.55;15.98;;;;;;;5.81;100.00;101921.78;5116483;28;20023;-70
2021/11/25 06:31:52;;;;;;;25.90;14.77;;;;;;;5.72;100.00;101925.06;5117529;27;20089;-69
2021/11/25 06:34:38;;;;;;;26.92;15.15;;;;;;;5.80;100.00;101922.59;5117687;27;20020;-70
2021/11/25 06:37:23;;;;;;;23.80;14.60;;;;;;;5.90;100.00;101917.66;5102070;28;20019;-69
2021/11/25 06:40:10;;;;;;;22.40;13.60;;;;;;;6.00;100.00;101924.81;5102369;28;20452;-69
2021/11/25 06:42:57;;;;;;;23.15;13.60;;;;;;;5.81;100.00;101919.19;5116869;28;20023;-69
2021/11/25 06:45:43;;;;;;;22.27;12.73;;;;;;;6.15;100.00;101926.84;5101903;28;20028;-69
2021/11/25 06:48:30;;;;;;;26.40;13.18;;;;;;;6.11;100.00;101927.63;5101561;28;20024;-70
2021/11/25 06:51:15;;;;;;;21.75;13.45;;;;;;;6.23;100.00;101926.13;5101477;28;20092;-68
2021/11/25 06:54:01;;;;;;;25.45;15.27;;;;;;;6.18;100.00;101914.75;5100436;28;20091;-69
2021/11/25 06:56:47;;;;;;;27.90;14.88;;;;;;;6.49;100.00;101919.69;5115691;28;20016;-69
2021/11/25 06:59:33;;;;;;;24.55;15.13;;;;;;;6.72;100.00;101912.28;5115292;28;20023;-70
2021/11/25 07:02:18;;;;;;;22.67;13.35;;;;;;;6.76;100.00;101914.09;5101391;28;20436;-68
2021/11/25 07:05:05;;;;;;;23.27;14.15;;;;;;;6.85;100.00;101909.03;5115741;28;20103;-69
2021/11/25 07:07:52;;;;;;;24.92;14.15;;;;;;;7.18;100.00;101910.44;5102056;28;20028;-69
2021/11/25 07:10:38;;;;;;;21.38;12.60;;;;;;;6.83;100.00;101903.78;5115061;28;20364;-69
2021/11/25 07:13:24;;;;;;;21.15;12.70;;;;;;;6.98;100.00;101900.53;5086086;28;20341;-68
2021/11/25 07:16:10;;;;;;;17.98;11.20;;;;;;;7.40;100.00;101901.19;5115228;28;20102;-69
2021/11/25 07:18:56;;;;;;;22.10;13.52;;;;;;;8.01;100.00;101901.13;5101749;28;20028;-69
2021/11/25 07:21:42;;;;;;;21.25;13.95;;;;;;;7.60;100.00;101904.97;5100143;28;20403;-70
2021/11/25 07:24:28;;;;;;;23.35;14.07;;;;;;;7.80;100.00;101908.72;5115486;28;20375;-69
2021/11/25 07:27:13;;;;;;;18.08;12.00;;;;;;;7.65;100.00;101893.75;5101053;28;20038;-70
2021/11/25 07:29:59;;;;;;;20.70;12.02;;;;;;;8.40;100.00;101892.03;5100759;28;20447;-69
2021/11/25 07:32:46;;;;;;;16.70;10.80;;;;;;;8.03;100.00;101895.06;5114804;28;20027;-70
2021/11/25 07:35:31;;;;;;;18.13;11.90;;;;;;;7.93;100.00;101893.22;5115492;28;20031;-71
2021/11/25 07:38:17;;;;;;;20.20;12.52;;;;;;;8.90;100.00;101885.53;5114901;28;20027;-69
2021/11/25 07:41:04;;;;;;;18.52;11.77;;;;;;;8.99;100.00;101887.31;5115686;28;20031;-69
2021/11/25 07:43:50;;;;;;;20.55;11.05;;;;;;;8.83;100.00;101881.09;5114887;28;20364;-69
2021/11/25 07:46:36;;;;;;;15.60;9.55;;;;;;;9.27;100.00;101887.53;5114814;28;20051;-70
2021/11/25 07:49:22;;;;;;;15.38;10.13;;;;;;;9.47;100.00;101882.41;5101140;28;20031;-70
2021/11/25 07:52:08;;;;;;;16.75;9.95;;;;;;;9.41;100.00;101870.16;5114000;28;20351;-70
2021/11/25 07:54:54;;;;;;;18.92;11.05;;;;;;;10.25;100.00;101866.16;5114556;28;20024;-69
2021/11/25 07:57:40;;;;;;;15.65;9.20;;;;;;;10.34;100.00;101876.66;5114502;28;20416;-69
2021/11/25 08:00:28;;;;;;;15.45;9.38;;;;;;;10.36;100.00;101865.31;5116302;27;20031;-69
2021/11/25 08:03:13;;;;;;;16.63;9.43;;;;;;;10.48;100.00;101861.84;5114401;28;20031;-70
2021/11/25 08:06:00;;;;;;;15.32;9.35;;;;;;;10.58;100.00;101859.25;5101309;27;20032;-69
2021/11/25 08:08:46;;;;;;;15.38;10.20;;;;;;;10.79;100.00;101854.00;5099313;28;20417;-70
2021/11/25 08:11:32;;;;;;;14.23;9.73;;;;;;;10.32;100.00;101855.69;5099616;28;20100;-70
2021/11/25 08:14:18;;;;;;;13.60;9.48;;;;;;;10.48;100.00;101854.84;5114435;28;20106;-69
2021/11/25 08:17:04;;;;;;;13.98;8.50;;;;;;;10.79;100.00;101850.50;5115315;28;20034;-71
2021/11/25 08:19:49;;;;;;;13.07;8.55;;;;;;;10.49;100.00;101848.72;5100809;28;20451;-69
2021/11/25 08:22:35;;;;;;;13.13;8.57;;;;;;;11.07;100.00;101854.84;5114840;28;20118;-70
2021/11/25 08:25:23;;;;;;;12.20;8.43;;;;;;;11.64;100.00;101852.97;5099916;28;20086;-69
2021/11/25 08:28:09;;;;;;;11.05;7.85;;;;;;;12.12;99.81;101844.88;5114010;28;20080;-69
2021/11/25 08:30:55;;;;;;;10.85;7.55;;;;;;;12.78;94.45;101838.25;5115303;28;20114;-70
2021/11/25 08:33:41;;;;;;;15.57;10.05;;;;;;;11.85;97.21;101836.28;5113949;28;20028;-69
2021/11/25 08:36:27;;;;;;;11.48;7.57;;;;;;;11.26;98.21;101828.59;5099277;28;20455;-69
2021/11/25 08:39:12;;;;;;;13.90;7.40;;;;;;;10.84;100.00;101828.63;5114166;28;20102;-70
2021/11/25 08:41:58;;;;;;;12.38;7.25;;;;;;;11.52;100.00;101820.59;5101710;28;20032;-69
2021/11/25 08:44:44;;;;;;;10.82;7.68;;;;;;;11.40;100.00;101816.28;5104428;28;20110;-70
2021/11/25 08:47:30;;;;;;;22.85;8.65;;;;;;;11.69;100.00;101818.84;5118336;28;20419;-69
2021/11/25 08:50:17;;;;;;;10.05;7.38;;;;;;;11.60;100.00;101814.50;5104060;28;20027;-70
2021/11/25 08:53:03;;;;;;;10.05;7.35;;;;;;;11.44;100.00;101811.88;5118611;28;20070;-70
2021/11/25 08:55:50;;;;;;;12.40;7.78;;;;;;;11.97;98.92;101805.53;5118022;28;20031;-69
2021/11/25 08:58:37;;;;;;;14.13;8.20;;;;;;;12.52;95.85;101806.03;5104138;28;20142;-69
2021/11/25 09:01:24;;;;;;;10.98;7.50;;;;;;;12.56;95.49;101808.63;5090290;28;20084;-70
2021/11/25 09:04:10;;;;;;;10.18;6.88;;;;;;;13.08;91.98;101809.94;5118998;27;20467;-69
2021/11/25 09:06:56;;;;;;;12.18;7.60;;;;;;;12.23;95.12;101803.63;5117996;28;20352;-70
2021/11/25 09:09:42;;;;;;;14.88;8.95;;;;;;;12.04;97.45;101801.13;5103859;28;20367;-68
2021/11/25 09:12:28;;;;;;;6.78;5.30;;;;;;;11.25;96.55;101800.56;5103604;28;20029;-68
2021/11/25 09:15:15;;;;;;;7.50;5.32;;;;;;;10.96;97.23;101786.69;5102094;28;20471;-69
2021/11/25 09:18:02;;;;;;;10.45;5.60;;;;;;;11.60;96.52;101783.00;5102378;28;20031;-69
2021/11/25 09:20:48;;;;;;;8.52;5.88;;;;;;;11.61;95.19;101791.75;5102653;28;20024;-69
2021/11/25 09:23:34;;;;;;;9.90;6.43;;;;;;;11.71;97.91;101780.31;5118713;28;20033;-70
2021/11/25 09:26:22;;;;;;;9.00;6.18;;;;;;;11.81;97.71;101779.41;5117116;28;20115;-69
2021/11/25 09:29:09;;;;;;;11.13;6.80;;;;;;;12.09;97.73;101770.47;5102550;28;20027;-69
2021/11/25 09:31:55;;;;;;;7.32;5.25;;;;;;;10.98;98.42;101763.97;5117694;28;20454;-70
2021/11/25 09:34:41;;;;;;;5.32;4.18;;;;;;;10.57;99.36;101767.50;5117795;28;20278;-70
2021/11/25 09:37:29;;;;;;;13.77;7.72;;;;;;;10.79;100.00;101759.63;5103129;28;20047;-69
2021/11/25 09:40:23;;;;;;;21.60;11.68;;;;;;;11.21;100.00;101750.78;5102356;28;20047;-70
2021/11/25 09:43:12;;;;;;;9.05;6.70;;;;;;;11.59;100.00;101754.97;5117639;28;20035;-71
2021/11/25 09:45:58;;;;;;;9.82;5.60;;;;;;;11.16;100.00;101745.53;5102509;28;20102;-70
2021/11/25 09:48:43;;;;;;;12.98;6.75;;;;;;;11.09;100.00;101740.31;5103294;28;20106;-71
2021/11/25 09:51:29;;;;;;;10.32;6.85;;;;;;;10.68;100.00;101742.19;5116956;28;20024;-69
2021/11/25 09:54:15;;;;;;;8.73;6.22;;;;;;;11.32;100.00;101744.59;5116710;28;20459;-69
2021/11/25 09:57:01;;;;;;;8.18;5.72;;;;;;;11.74;98.61;101731.28;5089805;28;20116;-70
2021/11/25 09:59:47;;;;;;;9.35;6.40;;;;;;;12.19;96.53;101732.72;5118576;27;20031;-71
2021/11/25 10:02:32;;;;;;;10.27;6.22;;;;;;;11.97;95.65;101718.88;5116622;28;20080;-71
2021/11/25 10:05:18;;;;;;;10.25;4.63;;;;;;;11.94;90.68;101720.66;5117129;28;20527;-71
2021/11/25 10:08:27;;;;;;;7.05;4.30;;;;;;;12.45;86.66;101713.22;5116835;28;20485;-70
2021/11/25 10:11:16;;;;;;;6.57;3.90;;;;;;;11.62;86.62;101707.72;5117485;28;20023;-70
2021/11/25 10:14:08;;;;;;;5.38;3.65;;;;;;;12.24;83.70;101702.91;5103819;27;20079;-70
2021/11/25 10:16:55;;;;;;;5.60;3.72;;;;;;;12.29;81.65;101706.34;5102307;28;20020;-71
2021/11/25 10:19:41;;;;;;;5.57;3.97;;;;;;;11.16;87.11;101698.31;5117043;28;20023;-70
2021/11/25 10:22:27;;;;;;;44.88;7.68;;;;;;;11.91;86.65;101691.78;5116791;28;20034;-71
2021/11/25 10:25:13;;;;;;;6.93;4.28;;;;;;;11.65;84.78;101684.09;5102854;28;20047;-69
2021/11/25 10:27:58;;;;;;;161.52;17.70;;;;;;;12.16;84.12;101690.69;5116828;28;20360;-71
2021/11/25 10:30:44;;;;;;;24.27;5.32;;;;;;;12.41;81.93;101682.59;5117083;28;20043;-70
2021/11/25 10:33:49;;;;;;;8.05;4.63;;;;;;;12.70;81.17;101672.63;5101736;28;20085;-70
2021/11/25 10:39:35;;;;;;;6.63;4.45;;;;;;;13.04;78.49;101650.38;5116030;28;20032;-71
2021/11/25 10:42:37;;;;;;;5.30;4.18;;;;;;;13.17;77.17;101644.03;5116648;28;20091;-71
2021/11/25 10:45:24;;;;;;;5.90;4.00;;;;;;;13.06;74.59;101637.19;5115906;28;20420;-70
2021/11/25 10:48:10;;;;;;;5.72;3.67;;;;;;;13.11;74.97;101636.22;5116436;28;20023;-70
2021/11/25 10:50:56;;;;;;;5.57;3.42;;;;;;;13.36;71.26;101627.13;5115250;28;20030;-70
2021/11/25 10:54:00;;;;;;;6.47;3.63;;;;;;;13.58;71.71;101632.91;5101011;28;20023;-71
2021/11/25 10:56:53;;;;;;;6.15;4.80;;;;;;;13.62;70.72;101624.94;5117184;28;20122;-71
2021/11/25 10:59:47;;;;;;;10.75;5.28;;;;;;;14.30;67.42;101618.53;5102075;28;20027;-70
2021/11/25 11:02:34;;;;;;;5.82;4.20;;;;;;;13.83;69.35;101611.44;5101662;28;20059;-70
2021/11/25 11:05:23;;;;;;;5.25;4.00;;;;;;;14.08;68.01;101610.16;5085408;28;20363;-70
2021/11/25 11:08:09;;;;;;;5.70;4.20;;;;;;;13.40;69.05;101602.50;5115926;28;20039;-71
2021/11/25 11:11:03;;;;;;;5.53;4.20;;;;;;;13.44;71.20;101600.66;5115865;28;20368;-71
2021/11/25 11:14:19;;;;;;;7.18;4.60;;;;;;;13.34;72.71;101602.56;5101619;28;20032;-70
2021/11/25 11:17:27;;;;;;;10.27;5.80;;;;;;;13.74;73.05;101601.06;5100340;28;20023;-69
2021/11/25 11:20:18;;;;;;;7.45;5.45;;;;;;;13.38;72.24;101585.84;5100751;28;20474;-70
2021/11/25 11:23:06;;;;;;;6.68;5.28;;;;;;;13.27;73.97;101585.13;5114654;28;20043;-69
2021/11/25 11:25:54;;;;;;;6.18;5.00;;;;;;;13.54;73.36;101574.16;5101102;28;20055;-69
2021/11/25 11:28:40;;;;;;;6.53;4.72;;;;;;;14.37;71.72;101575.34;5114535;28;20019;-70
2021/11/25 11:31:26;;;;;;;8.73;5.38;;;;;;;13.71;71.49;101577.41;5116496;27;20116;-70
2021/11/25 11:34:15;;;;;;;8.52;5.70;;;;;;;13.66;72.64;101570.47;5116888;28;20031;-69
2021/11/25 11:37:02;;;;;;;7.13;5.25;;;;;;;14.33;69.98;101574.56;5100230;28;20023;-70
2021/11/25 11:39:48;;;;;;;5.75;4.30;;;;;;;13.83;72.41;101569.28;5114750;28;20028;-70
2021/11/25 11:42:36;;;;;;;7.75;4.95;;;;;;;13.93;72.14;101562.97;5116676;28;20024;-70
2021/11/25 11:45:23;;;;;;;6.20;4.80;;;;;;;13.78;71.52;101557.97;5114752;28;20465;-69
2021/11/25 11:48:13;;;;;;;5.32;3.67;;;;;;;14.45;69.61;101552.34;5115058;28;20028;-70
2021/11/25 11:51:14;;;;;;;9.32;4.47;;;;;;;14.22;66.77;101557.19;5100357;28;20035;-69
2021/11/25 11:54:01;;;;;;;5.45;4.20;;;;;;;14.47;68.10;101550.56;5115272;28;20023;-70
2021/11/25 11:56:47;;;;;;;6.65;4.20;;;;;;;14.55;65.41;101543.38;5114462;28;20141;-70
2021/11/25 11:59:40;;;;;;;7.22;4.80;;;;;;;14.11;67.17;101545.97;5101542;28;20027;-69
2021/11/25 12:02:45;;;;;;;8.88;4.28;;;;;;;13.79;66.51;101537.78;5100309;28;20043;-70
2021/11/25 12:05:47;;;;;;;5.90;4.22;;;;;;;14.32;65.65;101530.63;5098463;28;20110;-70
2021/11/25 12:08:37;;;;;;;5.70;3.45;;;;;;;13.75;64.04;101529.03;5115481;27;20032;-70
2021/11/25 12:11:36;;;;;;;4.28;3.50;;;;;;;14.56;62.35;101522.22;5114971;28;20458;-70
2021/11/25 12:14:29;;;;;;;7.18;4.47;;;;;;;14.40;60.48;101518.16;5099933;28;20038;-70
2021/11/25 12:17:28;;;;;;;7.40;3.90;;;;;;;14.31;59.45;101522.75;5099568;28;20443;-70
2021/11/25 12:20:21;;;;;;;5.03;3.22;;;;;;;14.09;59.17;101513.50;5113706;28;20039;-71
2021/11/25 12:23:07;;;;;;;7.68;3.47;;;;;;;14.77;58.60;101510.34;5099973;28;20015;-69
2021/11/25 12:25:56;;;;;;;4.63;3.70;;;;;;;14.49;58.40;101496.91;5114219;28;20100;-69
2021/11/25 12:28:43;;;;;;;6.05;4.05;;;;;;;14.72;57.40;101502.53;5114379;28;20479;-70
2021/11/25 12:31:42;;;;;;;8.13;5.35;;;;;;;14.20;58.54;101493.91;5100204;28;20102;-70
2021/11/25 12:34:33;;;;;;;6.75;5.15;;;;;;;14.42;59.25;101492.63;5114446;28;20023;-70
2021/11/25 12:37:41;;;;;;;6.22;4.57;;;;;;;13.63;60.97;101494.16;5100286;28;20092;-70
2021/11/25 12:40:26;;;;;;;6.60;4.53;;;;;;;13.86;61.29;101495.47;5114182;28;20035;-70
2021/11/25 12:43:18;;;;;;;5.80;3.72;;;;;;;13.59;61.61;101495.97;5101065;28;20106;-69
2021/11/25 12:46:22;;;;;;;7.63;4.05;;;;;;;13.78;60.75;101488.59;5114362;28;20177;-70
2021/11/25 12:49:17;;;;;;;7.60;4.93;;;;;;;14.03;60.66;101482.00;5100342;28;20028;-69
2021/11/25 12:52:02;;;;;;;12.02;6.65;;;;;;;13.94;61.26;101498.84;5098890;28;20027;-69
2021/11/25 12:55:06;;;;;;;6.75;3.92;;;;;;;14.22;59.76;101489.53;5115463;28;20031;-70
2021/11/25 12:57:55;;;;;;;9.05;5.80;;;;;;;13.97;60.98;101477.72;5113498;28;20481;-70